createdAt,value
2022-11-24T00:00:43.571Z,5.7
2022-11-24T00:01:43.551Z,5.7
2022-11-24T00:02:43.740Z,5.7
2022-11-24T00:03:43.667Z,5.7
2022-11-24T00:04:43.553Z,5.7
2022-11-24T00:05:43.570Z,5.8
2022-11-24T00:06:43.547Z,5.8
2022-11-24T00:07:43.608Z,5.8
2022-11-24T00:08:43.547Z,5.8
2022-11-24T00:09:43.546Z,5.9
2022-11-24T00:10:43.559Z,5.9
2022-11-24T00:11:43.547Z,6
2022-11-24T00:12:43.548Z,6
2022-11-24T00:13:43.655Z,6
2022-11-24T00:14:43.550Z,6.1
2022-11-24T00:15:43.565Z,6.1
2022-11-24T00:16:43.604Z,6.1
2022-11-24T00:17:43.554Z,6.1
2022-11-24T00:18:43.545Z,6.1
2022-11-24T00:19:43.548Z,6.1
2022-11-24T00:20:43.566Z,6.1
2022-11-24T00:21:43.547Z,6.1
2022-11-24T00:22:43.545Z,6.2
2022-11-24T00:23:43.550Z,6.2
2022-11-24T00:24:43.552Z,6.2
2022-11-24T00:25:43.576Z,6.3
2022-11-24T00:26:43.554Z,6.3
2022-11-24T00:27:43.549Z,6.4
2022-11-24T00:28:43.551Z,6.4
2022-11-24T00:29:43.548Z,6.5
2022-11-24T00:30:43.677Z,6.5
2022-11-24T00:31:43.551Z,6.6
2022-11-24T00:32:43.545Z,6.6
2022-11-24T00:33:43.545Z,6.6
2022-11-24T00:34:43.545Z,6.7
2022-11-24T00:35:43.559Z,6.7
2022-11-24T00:36:43.549Z,6.8
2022-11-24T00:37:43.548Z,6.9
2022-11-24T00:38:43.551Z,6.9
2022-11-24T00:39:43.549Z,7
2022-11-24T00:40:43.562Z,7
2022-11-24T00:41:43.551Z,7.1
2022-11-24T00:42:43.551Z,7.1
2022-11-24T00:43:43.554Z,7.2
2022-11-24T00:44:43.550Z,7.2
2022-11-24T00:45:43.620Z,7.2
2022-11-24T00:46:43.630Z,7.2
2022-11-24T00:47:43.552Z,7.3
2022-11-24T00:48:43.546Z,7.3
2022-11-24T00:49:43.546Z,7.4
2022-11-24T00:50:43.559Z,7.4
2022-11-24T00:51:43.554Z,7.5
2022-11-24T00:52:43.552Z,7.5
2022-11-24T00:53:43.550Z,7.6
2022-11-24T00:54:43.547Z,7.6
2022-11-24T00:55:43.569Z,7.6
2022-11-24T00:56:43.550Z,7.7
2022-11-24T00:57:43.550Z,7.7
2022-11-24T00:58:43.546Z,7.7
2022-11-24T00:59:43.557Z,7.7
2022-11-24T01:00:43.558Z,7.7
2022-11-24T01:01:43.590Z,7.7
2022-11-24T01:02:43.633Z,7.8
2022-11-24T01:03:43.549Z,7.8
2022-11-24T01:04:43.548Z,7.8
2022-11-24T01:05:43.569Z,7.8
2022-11-24T01:06:43.551Z,7.8
2022-11-24T01:07:43.576Z,7.8
2022-11-24T01:08:43.557Z,7.8
2022-11-24T01:09:43.547Z,7.8
2022-11-24T01:10:43.594Z,7.8
2022-11-24T01:11:44.004Z,7.8
2022-11-24T01:12:43.571Z,7.8
2022-11-24T01:13:43.569Z,7.7
2022-11-24T01:14:43.549Z,7.7
2022-11-24T01:15:43.589Z,7.7
2022-11-24T01:16:43.552Z,7.7
2022-11-24T01:17:43.546Z,7.7
2022-11-24T01:18:43.568Z,7.6
2022-11-24T01:19:43.552Z,7.6
2022-11-24T01:20:43.545Z,7.6
2022-11-24T01:21:43.550Z,7.5
2022-11-24T01:22:43.558Z,7.5
2022-11-24T01:23:43.557Z,7.4
2022-11-24T01:24:43.550Z,7.4
2022-11-24T01:25:43.640Z,7.4
2022-11-24T01:26:43.826Z,7.3
2022-11-24T01:27:43.691Z,7.3
2022-11-24T01:28:46.873Z,7.3
2022-11-24T01:29:43.766Z,7.3
2022-11-24T01:30:43.580Z,7.2
2022-11-24T01:31:43.762Z,7.2
2022-11-24T01:32:43.543Z,7.2
2022-11-24T01:33:43.801Z,7.2
2022-11-24T01:34:43.564Z,7.2
2022-11-24T01:35:43.815Z,7.1
2022-11-24T01:36:43.595Z,7.1
2022-11-24T01:37:43.822Z,7.1
2022-11-24T01:38:43.702Z,7
2022-11-24T01:39:44.423Z,7
2022-11-24T01:40:43.553Z,7
2022-11-24T01:41:43.549Z,6.9
2022-11-24T01:42:43.546Z,6.9
2022-11-24T01:43:43.557Z,6.8
2022-11-24T01:44:43.554Z,6.8
2022-11-24T01:45:43.570Z,6.8
2022-11-24T01:46:43.553Z,6.7
2022-11-24T01:47:43.546Z,6.7
2022-11-24T01:48:43.558Z,6.6
2022-11-24T01:49:43.548Z,6.6
2022-11-24T01:50:43.548Z,6.6
2022-11-24T01:51:43.553Z,6.6
2022-11-24T01:52:43.552Z,6.6
2022-11-24T01:53:43.547Z,6.6
2022-11-24T01:54:43.546Z,6.6
2022-11-24T01:55:43.549Z,6.6
2022-11-24T01:56:43.561Z,6.6
2022-11-24T01:57:43.548Z,6.6
2022-11-24T01:58:43.564Z,6.6
2022-11-24T01:59:43.545Z,6.6
2022-11-24T02:00:43.545Z,6.6
2022-11-24T02:01:43.649Z,6.6
2022-11-24T02:02:43.599Z,6.6
2022-11-24T02:03:43.558Z,6.6
2022-11-24T02:04:43.555Z,6.6
2022-11-24T02:05:43.545Z,6.6
2022-11-24T02:06:43.561Z,6.6
2022-11-24T02:07:43.590Z,6.6
2022-11-24T02:08:43.543Z,6.6
2022-11-24T02:09:43.550Z,6.6
2022-11-24T02:10:43.561Z,6.7
2022-11-24T02:11:43.821Z,6.7
2022-11-24T02:12:43.548Z,6.7
2022-11-24T02:13:43.544Z,6.7
2022-11-24T02:14:43.550Z,6.7
2022-11-24T02:15:43.599Z,6.7
2022-11-24T02:16:43.544Z,6.7
2022-11-24T02:17:43.547Z,6.7
2022-11-24T02:18:43.551Z,6.7
2022-11-24T02:19:43.546Z,6.7
2022-11-24T02:20:43.551Z,6.6
2022-11-24T02:21:43.761Z,6.6
2022-11-24T02:22:43.547Z,6.6
2022-11-24T02:23:43.546Z,6.6
2022-11-24T02:24:43.543Z,6.6
2022-11-24T02:25:43.551Z,6.6
2022-11-24T02:26:43.548Z,6.6
2022-11-24T02:27:43.549Z,6.6
2022-11-24T02:28:43.556Z,6.6
2022-11-24T02:29:43.546Z,6.5
2022-11-24T02:30:43.634Z,6.5
2022-11-24T02:31:43.547Z,6.5
2022-11-24T02:32:43.550Z,6.5
2022-11-24T02:33:43.550Z,6.5
2022-11-24T02:34:43.695Z,6.4
2022-11-24T02:35:43.543Z,6.4
2022-11-24T02:36:43.551Z,6.4
2022-11-24T02:37:43.542Z,6.4
2022-11-24T02:38:43.545Z,6.4
2022-11-24T02:39:43.548Z,6.4
2022-11-24T02:40:43.548Z,6.4
2022-11-24T02:41:43.549Z,6.4
2022-11-24T02:42:43.544Z,6.4
2022-11-24T02:43:43.549Z,6.4
2022-11-24T02:44:43.551Z,6.4
2022-11-24T02:45:43.548Z,6.4
2022-11-24T02:46:43.580Z,6.4
2022-11-24T02:47:43.547Z,6.4
2022-11-24T02:48:43.545Z,6.4
2022-11-24T02:49:43.548Z,6.4
2022-11-24T02:50:43.549Z,6.4
2022-11-24T02:51:43.551Z,6.4
2022-11-24T02:52:43.544Z,6.4
2022-11-24T02:53:43.551Z,6.4
2022-11-24T02:54:43.551Z,6.4
2022-11-24T02:55:43.553Z,6.3
2022-11-24T02:56:43.545Z,6.4
2022-11-24T02:57:43.553Z,6.3
2022-11-24T02:58:43.544Z,6.3
2022-11-24T02:59:43.548Z,6.3
2022-11-24T03:00:43.550Z,6.3
2022-11-24T03:01:43.596Z,6.3
2022-11-24T03:02:43.589Z,6.3
2022-11-24T03:03:43.552Z,6.3
2022-11-24T03:04:43.546Z,6.3
2022-11-24T03:05:43.555Z,6.3
2022-11-24T03:06:43.550Z,6.3
2022-11-24T03:07:43.563Z,6.3
2022-11-24T03:08:43.550Z,6.4
2022-11-24T03:09:43.547Z,6.4
2022-11-24T03:10:43.544Z,6.4
2022-11-24T03:11:43.550Z,6.5
2022-11-24T03:12:43.547Z,6.5
2022-11-24T03:13:43.547Z,6.5
2022-11-24T03:14:43.548Z,6.6
2022-11-24T03:15:43.608Z,6.6
2022-11-24T03:16:43.544Z,6.6
2022-11-24T03:17:43.549Z,6.6
2022-11-24T03:18:43.549Z,6.7
2022-11-24T03:19:43.549Z,6.7
2022-11-24T03:20:43.545Z,6.8
2022-11-24T03:21:43.550Z,6.9
2022-11-24T03:22:43.549Z,6.9
2022-11-24T03:23:43.551Z,7
2022-11-24T03:24:43.551Z,7
2022-11-24T03:25:43.551Z,7.1
2022-11-24T03:26:43.573Z,7.1
2022-11-24T03:27:43.914Z,7.2
2022-11-24T03:28:43.973Z,7.2
2022-11-24T03:29:43.653Z,7.2
2022-11-24T03:30:44.016Z,7.2
2022-11-24T03:31:43.609Z,7.2
2022-11-24T03:32:43.546Z,7.2
2022-11-24T03:33:43.545Z,7.3
2022-11-24T03:34:43.544Z,7.3
2022-11-24T03:35:43.561Z,7.3
2022-11-24T03:36:43.551Z,7.3
2022-11-24T03:37:43.549Z,7.4
2022-11-24T03:38:43.543Z,7.4
2022-11-24T03:39:43.546Z,7.4
2022-11-24T03:40:43.568Z,7.4
2022-11-24T03:41:43.547Z,7.4
2022-11-24T03:42:43.547Z,7.5
2022-11-24T03:43:44.155Z,7.5
2022-11-24T03:44:43.542Z,7.5
2022-11-24T03:45:46.262Z,7.5
2022-11-24T03:46:43.582Z,7.5
2022-11-24T03:47:43.547Z,7.5
2022-11-24T03:48:43.543Z,7.5
2022-11-24T03:49:43.550Z,7.6
2022-11-24T03:50:43.565Z,7.6
2022-11-24T03:51:43.546Z,7.6
2022-11-24T03:52:43.551Z,7.6
2022-11-24T03:53:43.548Z,7.6
2022-11-24T03:54:43.550Z,7.6
2022-11-24T03:55:43.567Z,7.6
2022-11-24T03:56:43.550Z,7.6
2022-11-24T03:57:43.548Z,7.6
2022-11-24T03:58:43.550Z,7.7
2022-11-24T03:59:43.547Z,7.7
2022-11-24T04:00:43.565Z,7.7
2022-11-24T04:01:43.640Z,7.7
2022-11-24T04:02:43.589Z,7.7
2022-11-24T04:03:43.558Z,7.7
2022-11-24T04:04:47.105Z,7.7
2022-11-24T04:05:43.560Z,7.7
2022-11-24T04:06:43.567Z,7.8
2022-11-24T04:07:43.606Z,7.8
2022-11-24T04:08:43.547Z,7.8
2022-11-24T04:09:43.555Z,7.8
2022-11-24T04:10:43.555Z,7.9
2022-11-24T04:11:43.566Z,7.9
2022-11-24T04:12:43.746Z,7.9
2022-11-24T04:13:43.546Z,7.9
2022-11-24T04:14:43.555Z,7.9
2022-11-24T04:15:43.632Z,8
2022-11-24T04:16:43.548Z,8
2022-11-24T04:17:43.552Z,8
2022-11-24T04:18:43.548Z,8
2022-11-24T04:19:43.547Z,8
2022-11-24T04:20:43.547Z,8
2022-11-24T04:21:43.552Z,8
2022-11-24T04:22:43.559Z,8
2022-11-24T04:23:43.550Z,8.1
2022-11-24T04:24:43.556Z,8.1
2022-11-24T04:25:43.614Z,8.1
2022-11-24T04:26:43.553Z,8.1
2022-11-24T04:27:43.549Z,8.1
2022-11-24T04:28:43.551Z,8.1
2022-11-24T04:29:43.551Z,8.1
2022-11-24T04:30:43.548Z,8.1
2022-11-24T04:31:43.620Z,8.1
2022-11-24T04:32:43.560Z,8.1
2022-11-24T04:33:43.572Z,8.1
2022-11-24T04:34:43.570Z,8.1
2022-11-24T04:35:43.551Z,8.1
2022-11-24T04:36:43.551Z,8.1
2022-11-24T04:37:43.552Z,8.1
2022-11-24T04:39:20.567Z,8.1
2022-11-24T04:39:43.566Z,8.1
2022-11-24T04:40:43.551Z,8.1
2022-11-24T04:41:43.731Z,8.1
2022-11-24T04:42:43.555Z,8
2022-11-24T04:43:43.594Z,8
2022-11-24T04:44:43.549Z,8
2022-11-24T04:45:43.550Z,8
2022-11-24T04:46:43.874Z,8
2022-11-24T04:47:43.554Z,7.9
2022-11-24T04:48:43.570Z,7.9
2022-11-24T04:49:43.554Z,7.9
2022-11-24T04:50:43.554Z,7.9
2022-11-24T04:51:43.549Z,7.9
2022-11-24T04:52:43.549Z,7.9
2022-11-24T04:53:43.560Z,7.9
2022-11-24T04:54:43.552Z,7.9
2022-11-24T04:55:43.661Z,7.9
2022-11-24T04:56:43.552Z,7.9
2022-11-24T04:57:43.552Z,7.9
2022-11-24T04:58:43.563Z,7.9
2022-11-24T04:59:43.552Z,7.9
2022-11-24T05:00:43.546Z,8
2022-11-24T05:01:43.600Z,7.9
2022-11-24T05:02:43.547Z,8
2022-11-24T05:03:43.572Z,8
2022-11-24T05:04:43.582Z,8
2022-11-24T05:05:43.550Z,8
2022-11-24T05:06:43.554Z,8
2022-11-24T05:07:43.565Z,8
2022-11-24T05:08:43.566Z,8
2022-11-24T05:09:58.767Z,8
2022-11-24T05:10:43.551Z,8
2022-11-24T05:11:43.771Z,8.1
2022-11-24T05:12:47.086Z,8.1
2022-11-24T05:13:43.835Z,8.1
2022-11-24T05:14:43.605Z,8.1
2022-11-24T05:15:43.914Z,8.1
2022-11-24T05:16:43.546Z,8.1
2022-11-24T05:17:43.546Z,8.1
2022-11-24T05:18:43.549Z,8.1
2022-11-24T05:19:43.552Z,8.2
2022-11-24T05:20:43.553Z,8.2
2022-11-24T05:21:43.547Z,8.2
2022-11-24T05:22:43.548Z,8.2
2022-11-24T05:23:43.551Z,8.2
2022-11-24T05:24:43.553Z,8.2
2022-11-24T05:25:47.394Z,8.2
2022-11-24T05:26:43.549Z,8.2
2022-11-24T05:27:43.545Z,8.2
2022-11-24T05:28:43.552Z,8.2
2022-11-24T05:29:43.551Z,8.2
2022-11-24T05:30:43.550Z,8.2
2022-11-24T05:31:43.588Z,8.2
2022-11-24T05:32:43.552Z,8.2
2022-11-24T05:33:43.551Z,8.2
2022-11-24T05:34:43.544Z,8.2
2022-11-24T05:35:43.548Z,8.1
2022-11-24T05:36:43.552Z,8.1
2022-11-24T05:37:43.549Z,8.1
2022-11-24T05:38:43.554Z,8.1
2022-11-24T05:39:43.560Z,8.1
2022-11-24T05:40:43.551Z,8.1
2022-11-24T05:41:43.545Z,8.1
2022-11-24T05:42:46.981Z,8.1
2022-11-24T05:43:43.568Z,8
2022-11-24T05:44:43.550Z,8
2022-11-24T05:45:43.661Z,8
2022-11-24T05:46:43.608Z,8
2022-11-24T05:47:43.574Z,8
2022-11-24T05:48:43.569Z,8
2022-11-24T05:49:43.553Z,8
2022-11-24T05:50:43.554Z,8
2022-11-24T05:51:43.548Z,8
2022-11-24T05:52:43.551Z,7.9
2022-11-24T05:53:43.555Z,7.9
2022-11-24T05:54:43.575Z,7.9
2022-11-24T05:55:43.545Z,7.9
2022-11-24T05:56:43.552Z,7.9
2022-11-24T05:57:43.547Z,7.9
2022-11-24T05:58:43.551Z,7.9
2022-11-24T05:59:43.561Z,7.9
2022-11-24T06:00:43.551Z,7.9
2022-11-24T06:01:43.688Z,7.9
2022-11-24T06:02:43.616Z,7.8
2022-11-24T06:03:43.552Z,7.8
2022-11-24T06:04:43.570Z,7.8
2022-11-24T06:05:43.548Z,7.8
2022-11-24T06:06:43.550Z,7.8
2022-11-24T06:07:43.588Z,7.8
2022-11-24T06:08:43.547Z,7.7
2022-11-24T06:09:43.558Z,7.7
2022-11-24T06:10:43.553Z,7.7
2022-11-24T06:11:43.547Z,7.7
2022-11-24T06:12:43.551Z,7.7
2022-11-24T06:13:43.589Z,7.7
2022-11-24T06:14:43.574Z,7.7
2022-11-24T06:15:43.548Z,7.7
2022-11-24T06:16:43.579Z,7.7
2022-11-24T06:17:43.551Z,7.7
2022-11-24T06:18:43.553Z,7.7
2022-11-24T06:19:43.566Z,7.7
2022-11-24T06:20:49.081Z,7.7
2022-11-24T06:21:43.547Z,7.7
2022-11-24T06:22:43.548Z,7.7
2022-11-24T06:23:43.548Z,7.7
2022-11-24T06:24:43.563Z,7.7
2022-11-24T06:25:46.175Z,7.7
2022-11-24T06:26:43.552Z,7.7
2022-11-24T06:27:43.549Z,7.7
2022-11-24T06:28:43.550Z,7.7
2022-11-24T06:29:43.549Z,7.7
2022-11-24T06:30:43.564Z,7.7
2022-11-24T06:31:43.576Z,7.7
2022-11-24T06:32:47.837Z,7.7
2022-11-24T06:33:43.549Z,7.7
2022-11-24T06:34:43.548Z,7.6
2022-11-24T06:35:43.562Z,7.6
2022-11-24T06:36:43.547Z,7.6
2022-11-24T06:37:43.546Z,7.6
2022-11-24T06:38:43.553Z,7.5
2022-11-24T06:39:43.552Z,7.5
2022-11-24T06:40:43.561Z,7.5
2022-11-24T06:41:43.552Z,7.5
2022-11-24T06:42:43.550Z,7.4
2022-11-24T06:43:43.549Z,7.4
2022-11-24T06:44:43.549Z,7.3
2022-11-24T06:45:43.823Z,7.3
2022-11-24T06:46:44.091Z,7.3
2022-11-24T06:47:44.386Z,7.2
2022-11-24T06:48:43.729Z,7.2
2022-11-24T06:49:43.836Z,7.2
2022-11-24T06:50:43.664Z,7.2
2022-11-24T06:51:43.547Z,7.2
2022-11-24T06:52:43.779Z,7.2
2022-11-24T06:53:44.033Z,7.1
2022-11-24T06:54:44.284Z,7.1
2022-11-24T06:55:44.545Z,7.1
2022-11-24T06:56:44.539Z,7
2022-11-24T06:57:43.551Z,7
2022-11-24T06:58:43.806Z,7
2022-11-24T06:59:43.567Z,7
2022-11-24T07:00:43.600Z,7
2022-11-24T07:01:43.549Z,7
2022-11-24T07:02:45.990Z,7
2022-11-24T07:03:43.545Z,7
2022-11-24T07:04:43.547Z,7
2022-11-24T07:05:43.549Z,7
2022-11-24T07:06:43.552Z,7
2022-11-24T07:07:43.581Z,7
2022-11-24T07:08:43.548Z,7.1
2022-11-24T07:09:43.546Z,7.1
2022-11-24T07:10:43.546Z,7.1
2022-11-24T07:11:43.545Z,7.1
2022-11-24T07:12:43.554Z,7.1
2022-11-24T07:13:43.556Z,7.1
2022-11-24T07:14:43.551Z,7.2
2022-11-24T07:15:43.554Z,7.2
2022-11-24T07:16:43.599Z,7.2
2022-11-24T07:17:43.745Z,7.2
2022-11-24T07:18:43.543Z,7.2
2022-11-24T07:19:43.556Z,7.2
2022-11-24T07:20:43.550Z,7.2
2022-11-24T07:21:43.548Z,7.2
2022-11-24T07:22:43.548Z,7.2
2022-11-24T07:23:43.551Z,7.2
2022-11-24T07:24:43.550Z,7.2
2022-11-24T07:25:43.545Z,7.3
2022-11-24T07:26:43.544Z,7.3
2022-11-24T07:27:43.550Z,7.3
2022-11-24T07:28:43.547Z,7.3
2022-11-24T07:29:43.548Z,7.3
2022-11-24T07:30:43.546Z,7.3
2022-11-24T07:31:43.712Z,7.3
2022-11-24T07:32:43.551Z,7.3
2022-11-24T07:33:43.552Z,7.3
2022-11-24T07:34:43.548Z,7.3
2022-11-24T07:35:43.547Z,7.3
2022-11-24T07:36:43.546Z,7.3
2022-11-24T07:37:43.547Z,7.3
2022-11-24T07:38:43.546Z,7.3
2022-11-24T07:39:43.545Z,7.3
2022-11-24T07:40:43.552Z,7.2
2022-11-24T07:41:43.546Z,7.2
2022-11-24T07:42:43.554Z,7.2
2022-11-24T07:43:43.553Z,7.2
2022-11-24T07:44:43.562Z,7.2
2022-11-24T07:45:43.612Z,7.2
2022-11-24T07:46:43.732Z,7.2
2022-11-24T07:47:43.550Z,7.3
2022-11-24T07:48:43.545Z,7.3
2022-11-24T07:49:43.552Z,7.3
2022-11-24T07:50:43.547Z,7.3
2022-11-24T07:51:43.551Z,7.3
2022-11-24T07:52:43.553Z,7.4
2022-11-24T07:53:43.547Z,7.4
2022-11-24T07:54:43.555Z,7.4
2022-11-24T07:55:43.552Z,7.5
2022-11-24T07:56:43.551Z,7.5
2022-11-24T07:57:43.551Z,7.5
2022-11-24T07:58:45.081Z,7.6
2022-11-24T07:59:43.632Z,7.6
2022-11-24T08:00:43.546Z,7.6
2022-11-24T08:01:43.625Z,7.7
2022-11-24T08:02:43.636Z,7.7
2022-11-24T08:03:43.606Z,7.7
2022-11-24T08:04:43.545Z,7.7
2022-11-24T08:06:00.928Z,7.7
2022-11-24T08:06:47.286Z,7.8
2022-11-24T08:07:43.545Z,7.8
2022-11-24T08:08:43.545Z,7.9
2022-11-24T08:09:43.547Z,7.9
2022-11-24T08:10:43.545Z,7.9
2022-11-24T08:11:43.556Z,8
2022-11-24T08:12:43.992Z,8
2022-11-24T08:13:43.551Z,8.1
2022-11-24T08:14:43.631Z,8.1
2022-11-24T08:15:43.544Z,8.2
2022-11-24T08:16:43.674Z,8.2
2022-11-24T08:17:43.544Z,8.3
2022-11-24T08:18:43.550Z,8.3
2022-11-24T08:19:43.548Z,8.3
2022-11-24T08:20:43.736Z,8.4
2022-11-24T08:21:44.015Z,8.4
2022-11-24T08:22:43.550Z,8.4
2022-11-24T08:23:43.550Z,8.4
2022-11-24T08:24:43.574Z,8.4
2022-11-24T08:25:43.552Z,8.4
2022-11-24T08:26:43.552Z,8.4
2022-11-24T08:27:43.558Z,8.4
2022-11-24T08:28:43.553Z,8.4
2022-11-24T08:29:43.598Z,8.5
2022-11-24T08:30:43.551Z,8.5
2022-11-24T08:31:43.580Z,8.5
2022-11-24T08:32:43.545Z,8.5
2022-11-24T08:33:43.548Z,8.5
2022-11-24T08:34:43.571Z,8.6
2022-11-24T08:35:43.553Z,8.6
2022-11-24T08:36:43.546Z,8.6
2022-11-24T08:37:43.546Z,8.6
2022-11-24T08:38:43.550Z,8.6
2022-11-24T08:39:43.592Z,8.6
2022-11-24T08:40:43.547Z,8.6
2022-11-24T08:41:43.567Z,8.6
2022-11-24T08:42:43.550Z,8.6
2022-11-24T08:43:43.565Z,8.6
2022-11-24T08:44:43.658Z,8.6
2022-11-24T08:45:43.581Z,8.6
2022-11-24T08:46:43.753Z,8.6
2022-11-24T08:47:43.549Z,8.6
2022-11-24T08:48:43.791Z,8.6
2022-11-24T08:49:43.698Z,8.6
2022-11-24T08:50:43.551Z,8.6
2022-11-24T08:51:43.556Z,8.6
2022-11-24T08:52:43.545Z,8.6
2022-11-24T08:53:43.579Z,8.7
2022-11-24T08:54:43.573Z,8.7
2022-11-24T08:55:43.552Z,8.7
2022-11-24T08:56:43.555Z,8.7
2022-11-24T08:57:43.550Z,8.7
2022-11-24T08:58:43.584Z,8.7
2022-11-24T08:59:43.614Z,8.7
2022-11-24T09:00:43.552Z,8.7
2022-11-24T09:01:43.606Z,8.7
2022-11-24T09:02:43.550Z,8.8
2022-11-24T09:03:48.440Z,8.8
2022-11-24T09:04:43.592Z,8.8
2022-11-24T09:05:51.524Z,8.8
2022-11-24T09:06:43.569Z,8.8
2022-11-24T09:07:43.579Z,8.8
2022-11-24T09:08:43.551Z,8.8
2022-11-24T09:09:43.549Z,8.8
2022-11-24T09:10:43.556Z,8.8
2022-11-24T09:11:43.572Z,8.8
2022-11-24T09:12:43.551Z,8.8
2022-11-24T09:13:43.549Z,8.8
2022-11-24T09:14:43.564Z,8.8
2022-11-24T09:15:43.554Z,8.8
2022-11-24T09:16:43.577Z,8.8
2022-11-24T09:17:43.545Z,8.9
2022-11-24T09:18:43.546Z,8.9
2022-11-24T09:19:43.558Z,8.9
2022-11-24T09:20:43.553Z,8.9
2022-11-24T09:21:43.740Z,8.9
2022-11-24T09:22:43.552Z,8.9
2022-11-24T09:23:43.561Z,8.9
2022-11-24T09:24:43.553Z,8.9
2022-11-24T09:25:43.549Z,8.9
2022-11-24T09:26:47.563Z,8.9
2022-11-24T09:27:43.553Z,8.9
2022-11-24T09:28:43.821Z,8.9
2022-11-24T09:29:43.586Z,8.9
2022-11-24T09:30:43.899Z,8.9
2022-11-24T09:31:43.636Z,8.9
2022-11-24T09:32:43.894Z,9
2022-11-24T09:33:43.834Z,9
2022-11-24T09:34:43.661Z,9
2022-11-24T09:35:43.552Z,8.9
2022-11-24T09:36:43.548Z,8.9
2022-11-24T09:37:43.550Z,8.9
2022-11-24T09:38:43.576Z,8.9
2022-11-24T09:39:43.551Z,8.9
2022-11-24T09:40:43.560Z,8.9
2022-11-24T09:41:43.548Z,8.9
2022-11-24T09:42:43.550Z,8.9
2022-11-24T09:43:43.546Z,8.9
2022-11-24T09:44:43.554Z,8.9
2022-11-24T09:46:04.309Z,8.9
2022-11-24T09:46:43.601Z,8.9
2022-11-24T09:47:43.551Z,8.8
2022-11-24T09:48:43.554Z,8.8
2022-11-24T09:49:46.178Z,8.8
2022-11-24T09:50:43.548Z,8.8
2022-11-24T09:51:43.546Z,8.7
2022-11-24T09:52:43.545Z,8.7
2022-11-24T09:53:43.548Z,8.7
2022-11-24T09:54:43.550Z,8.7
2022-11-24T09:55:43.650Z,8.7
2022-11-24T09:56:43.561Z,8.7
2022-11-24T09:57:43.551Z,8.7
2022-11-24T09:58:43.550Z,8.7
2022-11-24T09:59:43.549Z,8.7
2022-11-24T10:00:43.564Z,8.7
2022-11-24T10:01:43.633Z,8.7
2022-11-24T10:02:43.551Z,8.7
2022-11-24T10:03:43.582Z,8.7
2022-11-24T10:04:43.601Z,8.8
2022-11-24T10:05:43.551Z,8.8
2022-11-24T10:06:43.553Z,8.8
2022-11-24T10:07:43.587Z,8.8
2022-11-24T10:08:43.547Z,8.8
2022-11-24T10:09:43.564Z,8.9
2022-11-24T10:10:43.577Z,8.9
2022-11-24T10:11:43.560Z,8.9
2022-11-24T10:12:43.545Z,8.9
2022-11-24T10:13:43.547Z,8.9
2022-11-24T10:14:43.554Z,8.9
2022-11-24T10:15:43.620Z,8.9
2022-11-24T10:16:43.554Z,8.9
2022-11-24T10:17:43.549Z,8.9
2022-11-24T10:18:43.552Z,8.9
2022-11-24T10:19:43.792Z,8.9
2022-11-24T10:20:43.562Z,9
2022-11-24T10:21:43.552Z,9
2022-11-24T10:22:43.569Z,9
2022-11-24T10:23:43.556Z,9
2022-11-24T10:24:43.546Z,9
2022-11-24T10:25:43.554Z,9
2022-11-24T10:26:43.551Z,9
2022-11-24T10:27:43.755Z,9
2022-11-24T10:28:44.065Z,9
2022-11-24T10:29:44.306Z,9
2022-11-24T10:30:43.671Z,9
2022-11-24T10:31:43.837Z,9
2022-11-24T10:32:43.547Z,9
2022-11-24T10:33:43.555Z,9
2022-11-24T10:34:43.551Z,9
2022-11-24T10:35:43.558Z,9
2022-11-24T10:36:43.549Z,9
2022-11-24T10:37:43.561Z,9
2022-11-24T10:38:43.557Z,9
2022-11-24T10:39:43.552Z,9
2022-11-24T10:40:57.256Z,9
2022-11-24T10:41:43.547Z,9
2022-11-24T10:42:43.567Z,9
2022-11-24T10:43:43.556Z,9
2022-11-24T10:44:43.547Z,9
2022-11-24T10:45:43.562Z,9
2022-11-24T10:46:43.622Z,9
2022-11-24T10:47:43.560Z,9
2022-11-24T10:48:43.555Z,9
2022-11-24T10:49:43.552Z,9.1
2022-11-24T10:50:43.552Z,9.1
2022-11-24T10:51:43.571Z,9.1
2022-11-24T10:52:43.551Z,9.1
2022-11-24T10:53:43.554Z,9.1
2022-11-24T10:54:43.559Z,9.1
2022-11-24T10:55:43.553Z,9.1
2022-11-24T10:56:43.557Z,9.1
2022-11-24T10:57:43.556Z,9.1
2022-11-24T10:58:43.546Z,9.1
2022-11-24T10:59:43.549Z,9.1
2022-11-24T11:00:43.553Z,9
2022-11-24T11:01:43.569Z,9
2022-11-24T11:02:43.571Z,9
2022-11-24T11:03:43.556Z,9
2022-11-24T11:04:43.559Z,9
2022-11-24T11:05:43.554Z,9
2022-11-24T11:06:43.548Z,9
2022-11-24T11:07:43.605Z,9
2022-11-24T11:08:43.547Z,8.9
2022-11-24T11:09:43.552Z,8.9
2022-11-24T11:10:43.554Z,8.9
2022-11-24T11:11:43.545Z,8.9
2022-11-24T11:12:44.850Z,8.9
2022-11-24T11:13:43.553Z,8.9
2022-11-24T11:14:43.545Z,8.9
2022-11-24T11:15:43.673Z,8.9
2022-11-24T11:16:43.557Z,8.9
2022-11-24T11:17:43.550Z,8.8
2022-11-24T11:18:43.556Z,8.8
2022-11-24T11:19:49.950Z,8.8
2022-11-24T11:20:43.559Z,8.8
2022-11-24T11:21:43.750Z,8.8
2022-11-24T11:22:43.545Z,8.8
2022-11-24T11:23:43.551Z,8.8
2022-11-24T11:24:43.546Z,8.9
2022-11-24T11:25:43.549Z,8.9
2022-11-24T11:26:43.550Z,8.9
2022-11-24T11:27:43.546Z,8.9
2022-11-24T11:28:43.554Z,8.9
2022-11-24T11:31:17.060Z,9
2022-11-24T11:34:02.599Z,9
2022-11-24T11:34:07.115Z,9
2022-11-24T11:34:43.553Z,9
2022-11-24T11:35:43.549Z,9
2022-11-24T11:36:43.557Z,9
2022-11-24T11:37:43.549Z,9
2022-11-24T11:38:43.549Z,9
2022-11-24T11:39:48.378Z,9
2022-11-24T11:40:43.573Z,9
2022-11-24T11:41:43.554Z,9
2022-11-24T11:43:01.731Z,9
2022-11-24T11:43:43.548Z,9
2022-11-24T11:44:43.546Z,9
2022-11-24T11:45:43.581Z,9
2022-11-24T11:46:43.577Z,9
2022-11-24T11:47:43.553Z,9
2022-11-24T11:48:45.552Z,9
2022-11-24T11:49:43.582Z,9.1
2022-11-24T11:51:07.010Z,9.1
2022-11-24T11:51:43.636Z,9.1
2022-11-24T11:52:43.545Z,9.1
2022-11-24T11:53:43.550Z,9.2
2022-11-24T11:54:43.556Z,9.2
2022-11-24T11:55:50.013Z,9.2
2022-11-24T11:56:43.997Z,9.2
2022-11-24T11:57:43.546Z,9.3
2022-11-24T11:58:43.548Z,9.3
2022-11-24T11:59:43.558Z,9.3
2022-11-24T12:00:43.550Z,9.4
2022-11-24T12:01:43.565Z,9.4
2022-11-24T12:02:47.231Z,9.5
2022-11-24T12:03:43.632Z,9.5
2022-11-24T12:04:43.545Z,9.6
2022-11-24T12:05:43.545Z,9.6
2022-11-24T12:06:43.561Z,9.6
2022-11-24T12:07:43.628Z,9.7
2022-11-24T12:09:03.634Z,9.7
2022-11-24T12:09:43.547Z,9.8
2022-11-24T12:10:43.551Z,9.8
2022-11-24T12:11:43.553Z,9.8
2022-11-24T12:12:43.573Z,9.8
2022-11-24T12:13:43.549Z,9.9
2022-11-24T12:14:43.550Z,9.9
2022-11-24T12:15:43.612Z,10
2022-11-24T12:16:43.548Z,10
2022-11-24T12:17:43.558Z,10
2022-11-24T12:18:56.886Z,10
2022-11-24T12:19:43.550Z,10.1
2022-11-24T12:20:43.550Z,10.1
2022-11-24T12:21:43.585Z,10.1
2022-11-24T12:22:43.770Z,10.1
2022-11-24T12:23:43.656Z,10.1
2022-11-24T12:24:43.583Z,10.1
2022-11-24T12:25:43.802Z,10.1
2022-11-24T12:26:43.546Z,10.1
2022-11-24T12:27:43.548Z,10.1
2022-11-24T12:28:43.551Z,10.1
2022-11-24T12:29:43.569Z,10.1
2022-11-24T12:30:43.551Z,10.2
2022-11-24T12:31:43.574Z,10.1
2022-11-24T12:32:43.551Z,10.1
2022-11-24T12:33:47.658Z,10.1
2022-11-24T12:34:43.564Z,10.2
2022-11-24T12:35:43.548Z,10.2
2022-11-24T12:36:43.545Z,10.1
2022-11-24T12:37:43.565Z,10.1
2022-11-24T12:38:43.546Z,10.1
2022-11-24T12:39:43.574Z,10.1
2022-11-24T12:40:46.802Z,10.1
2022-11-24T12:41:43.552Z,10.1
2022-11-24T12:42:43.546Z,10.1
2022-11-24T12:43:43.549Z,10.1
2022-11-24T12:44:43.570Z,10.1
2022-11-24T12:45:43.549Z,10.1
2022-11-24T12:46:43.626Z,10.1
2022-11-24T12:47:43.556Z,10.2
2022-11-24T12:48:43.653Z,10.2
2022-11-24T12:49:43.562Z,10.2
2022-11-24T12:50:43.546Z,10.2
2022-11-24T12:51:43.552Z,10.2
2022-11-24T12:52:43.545Z,10.2
2022-11-24T12:53:43.551Z,10.2
2022-11-24T12:54:43.562Z,10.2
2022-11-24T12:55:43.549Z,10.2
2022-11-24T12:56:43.557Z,10.2
2022-11-24T12:57:43.559Z,10.1
2022-11-24T12:58:43.551Z,10.1
2022-11-24T12:59:43.553Z,10.1
2022-11-24T13:00:43.547Z,10.1
2022-11-24T13:01:43.811Z,10.1
2022-11-24T13:02:44.275Z,10.1
2022-11-24T13:03:43.643Z,10.1
2022-11-24T13:04:43.556Z,10.1
2022-11-24T13:05:43.546Z,10
2022-11-24T13:06:48.976Z,10.1
2022-11-24T13:07:43.969Z,10
2022-11-24T13:08:43.658Z,10
2022-11-24T13:09:43.548Z,10
2022-11-24T13:10:56.088Z,10
2022-11-24T13:11:43.558Z,10
2022-11-24T13:12:43.563Z,10
2022-11-24T13:13:43.553Z,9.9
2022-11-24T13:14:43.552Z,9.9
2022-11-24T13:15:45.463Z,9.9
2022-11-24T13:16:59.215Z,9.9
2022-11-24T13:18:43.566Z,9.9
2022-11-24T13:19:43.552Z,9.9
2022-11-24T13:20:43.549Z,9.9
2022-11-24T13:21:43.550Z,10
2022-11-24T13:22:43.562Z,10
2022-11-24T13:23:43.546Z,10
2022-11-24T13:24:43.544Z,10
2022-11-24T13:25:43.545Z,10
2022-11-24T13:26:43.556Z,10
2022-11-24T13:27:43.547Z,10
2022-11-24T13:29:00.646Z,10
2022-11-24T13:29:43.596Z,10
2022-11-24T13:30:43.553Z,10
2022-11-24T13:31:43.566Z,9.9
2022-11-24T13:32:43.548Z,9.9
2022-11-24T13:33:43.549Z,9.9
2022-11-24T13:34:43.547Z,9.9
2022-11-24T13:35:43.547Z,9.9
2022-11-24T13:36:43.547Z,9.8
2022-11-24T13:37:43.556Z,9.8
2022-11-24T13:38:43.542Z,9.8
2022-11-24T13:39:47.425Z,9.8
2022-11-24T13:40:54.548Z,9.8
2022-11-24T13:41:43.551Z,9.7
2022-11-24T13:42:44.479Z,9.7
2022-11-24T13:43:43.547Z,9.6
2022-11-24T13:44:43.749Z,9.6
2022-11-24T13:45:43.551Z,9.6
2022-11-24T13:46:43.597Z,9.5
2022-11-24T13:47:43.554Z,9.5
2022-11-24T13:48:43.545Z,9.4
2022-11-24T13:49:43.544Z,9.4
2022-11-24T13:50:43.550Z,9.4
2022-11-24T13:51:43.551Z,9.4
2022-11-24T13:52:43.556Z,9.4
2022-11-24T13:53:43.553Z,9.4
2022-11-24T13:54:43.544Z,9.3
2022-11-24T13:55:43.552Z,9.3
2022-11-24T13:56:43.546Z,9.3